Time;durP1;ratioP1;P1;durP2;ratioP2;P2;SDS_P1;SDS_P2;PMS_P1;PMS_P2;Temp;Humidity;BMP_temperature;BMP_pressure;BME280_temperature;BME280_humidity;BME280_pressure;Samples;Min_cycle;Max_cycle;Signal;HPM_P1;HPM_P2
2022/11/11 00:00:06;;;;;;;5.87;5.20;;;;;;;;;;4989139;28;20471;-77
2022/11/11 00:02:32;;;;;;;9.70;5.17;;;;;;;;;;4987023;28;20440;-77
2022/11/11 00:04:58;;;;;;;6.67;5.67;;;;;;;;;;4989493;28;20467;-78
2022/11/11 00:07:24;;;;;;;5.50;5.10;;;;;;;;;;4986251;28;21083;-77
2022/11/11 00:09:50;;;;;;;5.50;4.97;;;;;;;;;;4997542;28;21076;-77
2022/11/11 00:12:16;;;;;;;5.83;5.30;;;;;;;;;;5002571;28;20522;-76
2022/11/11 00:14:42;;;;;;;5.93;5.50;;;;;;;;;;4998753;28;20523;-77
2022/11/11 00:25:25;;;;;;;6.73;6.23;;;;;;;;;;4988480;28;21402;-78
2022/11/11 00:27:51;;;;;;;5.87;5.30;;;;;;;;;;4995214;28;20841;-76
2022/11/11 00:30:17;;;;;;;6.27;5.70;;;;;;;;;;4980493;28;20812;-77
2022/11/11 00:32:43;;;;;;;5.23;4.70;;;;;;;;;;4993122;28;20470;-77
2022/11/11 00:37:55;;;;;;;6.80;4.40;;;;;;;;;;4983610;28;20551;-78
2022/11/11 00:40:21;;;;;;;7.90;5.10;;;;;;;;;;4989379;28;20520;-77
2022/11/11 00:42:47;;;;;;;6.23;5.40;;;;;;;;;;4974325;28;20514;-77
2022/11/11 00:45:13;;;;;;;5.30;4.87;;;;;;;;;;4989076;28;21049;-77
2022/11/11 00:53:14;;;;;;;6.63;6.03;;;;;;;;;;4995932;28;21173;-77
2022/11/11 00:55:40;;;;;;;5.97;5.00;;;;;;;;;;4962555;28;20437;-77
2022/11/11 00:58:06;;;;;;;5.70;5.30;;;;;;;;;;4988504;28;20495;-77
2022/11/11 01:00:32;;;;;;;5.67;5.13;;;;;;;;;;4996531;28;20417;-78
2022/11/11 01:02:58;;;;;;;6.57;5.43;;;;;;;;;;4991584;28;20472;-78
2022/11/11 01:05:24;;;;;;;8.50;5.87;;;;;;;;;;4983895;28;20607;-77
2022/11/11 01:07:50;;;;;;;6.40;5.80;;;;;;;;;;4981841;28;20834;-78
2022/11/11 01:10:37;;;;;;;6.60;5.97;;;;;;;;;;4985580;28;20868;-77
2022/11/11 01:13:12;;;;;;;6.50;5.93;;;;;;;;;;4969384;28;20511;-76
2022/11/11 01:15:41;;;;;;;5.67;4.50;;;;;;;;;;4964042;28;20425;-76
2022/11/11 01:18:10;;;;;;;6.10;5.60;;;;;;;;;;4982005;28;20448;-78
2022/11/11 01:20:37;;;;;;;6.43;4.70;;;;;;;;;;4975838;28;20487;-78
2022/11/11 01:23:04;;;;;;;9.20;5.13;;;;;;;;;;4969405;28;20568;-77
2022/11/11 01:25:32;;;;;;;5.70;5.30;;;;;;;;;;4981877;28;20443;-77
2022/11/11 01:27:58;;;;;;;6.90;5.30;;;;;;;;;;4973038;28;20811;-76
2022/11/11 01:30:24;;;;;;;6.07;5.57;;;;;;;;;;4981972;28;20803;-77
2022/11/11 01:32:50;;;;;;;9.33;5.30;;;;;;;;;;4982045;28;20805;-76
2022/11/11 01:35:16;;;;;;;5.77;5.27;;;;;;;;;;4987185;28;20499;-77
2022/11/11 01:37:42;;;;;;;5.83;5.23;;;;;;;;;;4980833;28;20515;-79
2022/11/11 01:40:09;;;;;;;6.27;5.63;;;;;;;;;;4980659;28;20437;-77
2022/11/11 01:42:51;;;;;;;5.53;5.30;;;;;;;;;;4979110;28;20444;-77
2022/11/11 01:45:37;;;;;;;5.60;5.07;;;;;;;;;;4981372;28;20433;-77
2022/11/11 01:50:48;;;;;;;7.20;5.43;;;;;;;;;;4976223;28;21015;-77
2022/11/11 01:53:14;;;;;;;15.23;5.40;;;;;;;;;;4981892;28;20447;-77
2022/11/11 01:55:40;;;;;;;5.53;5.23;;;;;;;;;;4980573;28;20436;-76
2022/11/11 01:58:08;;;;;;;4.47;4.30;;;;;;;;;;4975660;28;20527;-78
2022/11/11 02:00:34;;;;;;;4.70;4.30;;;;;;;;;;4973255;28;20418;-78
2022/11/11 02:03:04;;;;;;;4.63;3.93;;;;;;;;;;4978539;28;20962;-78
2022/11/11 02:05:44;;;;;;;5.17;4.70;;;;;;;;;;4960923;28;20497;-77
2022/11/11 02:08:31;;;;;;;5.77;5.23;;;;;;;;;;4975788;28;20555;-77
2022/11/11 02:10:58;;;;;;;5.27;4.70;;;;;;;;;;4971603;28;20452;-77
2022/11/11 02:16:09;;;;;;;6.00;5.50;;;;;;;;;;4972353;28;20435;-77
2022/11/11 02:18:35;;;;;;;6.13;5.63;;;;;;;;;;4978233;28;20858;-77
2022/11/11 02:21:01;;;;;;;5.00;4.50;;;;;;;;;;4978459;28;20897;-78
2022/11/11 02:23:39;;;;;;;5.97;5.37;;;;;;;;;;4982863;28;20889;-77
2022/11/11 02:26:06;;;;;;;5.03;4.87;;;;;;;;;;4982834;28;20517;-78
2022/11/11 02:28:36;;;;;;;7.40;5.50;;;;;;;;;;4981839;28;20444;-78
2022/11/11 02:31:02;;;;;;;5.07;4.83;;;;;;;;;;4977587;28;20433;-78
2022/11/11 02:33:28;;;;;;;5.73;5.13;;;;;;;;;;4969591;28;20551;-76
2022/11/11 02:35:56;;;;;;;7.80;4.97;;;;;;;;;;4976062;28;20457;-77
2022/11/11 02:38:22;;;;;;;7.13;5.23;;;;;;;;;;4978046;28;20807;-77
2022/11/11 02:43:33;;;;;;;6.20;5.67;;;;;;;;;;4966411;28;20851;-77
2022/11/11 02:46:00;;;;;;;5.50;5.10;;;;;;;;;;4975995;28;20448;-77
2022/11/11 02:48:27;;;;;;;7.00;6.43;;;;;;;;;;4976439;28;20432;-77
2022/11/11 02:50:53;;;;;;;6.20;5.30;;;;;;;;;;4985044;28;20424;-78
2022/11/11 02:53:20;;;;;;;5.80;5.30;;;;;;;;;;4980862;28;20442;-76
2022/11/11 02:55:46;;;;;;;7.90;5.53;;;;;;;;;;4975313;28;20455;-77
2022/11/11 02:58:13;;;;;;;5.63;5.13;;;;;;;;;;4974565;28;20535;-78
2022/11/11 03:00:39;;;;;;;5.37;5.03;;;;;;;;;;4976939;28;20433;-78
2022/11/11 03:03:05;;;;;;;5.30;5.03;;;;;;;;;;4977591;28;20534;-78
2022/11/11 03:05:31;;;;;;;7.27;4.97;;;;;;;;;;4978593;28;20543;-78
2022/11/11 03:07:57;;;;;;;6.87;4.87;;;;;;;;;;4977360;28;20444;-77
2022/11/11 03:10:23;;;;;;;6.47;5.63;;;;;;;;;;4985110;28;20474;-77
2022/11/11 03:12:49;;;;;;;7.67;5.90;;;;;;;;;;4974996;28;20436;-77
2022/11/11 03:15:15;;;;;;;9.10;5.43;;;;;;;;;;4984861;28;20435;-77
2022/11/11 03:17:41;;;;;;;6.70;5.50;;;;;;;;;;4982424;28;20575;-77
2022/11/11 03:23:10;;;;;;;8.50;6.23;;;;;;;;;;4969387;28;20476;-78
2022/11/11 03:25:40;;;;;;;7.37;5.27;;;;;;;;;;4985374;28;20428;-77
2022/11/11 03:28:11;;;;;;;6.20;5.80;;;;;;;;;;4964249;28;20468;-77
2022/11/11 03:30:38;;;;;;;5.97;4.93;;;;;;;;;;4974167;28;20439;-78
2022/11/11 03:33:04;;;;;;;5.13;4.77;;;;;;;;;;4972059;28;20440;-77
2022/11/11 03:35:31;;;;;;;5.93;5.53;;;;;;;;;;4979945;28;20439;-78
2022/11/11 03:38:22;;;;;;;8.63;4.93;;;;;;;;;;4965526;28;20438;-78
2022/11/11 03:40:48;;;;;;;6.00;5.40;;;;;;;;;;4973598;28;20468;-78
2022/11/11 03:43:16;;;;;;;5.90;5.33;;;;;;;;;;4975499;28;20472;-77
2022/11/11 03:45:42;;;;;;;7.10;4.90;;;;;;;;;;4977316;28;20435;-77
2022/11/11 03:48:08;;;;;;;5.43;5.13;;;;;;;;;;4981862;28;20453;-76
2022/11/11 03:50:40;;;;;;;5.68;5.00;;;;;;;;;;4830281;28;10000565;-76
2022/11/11 03:53:06;;;;;;;5.17;4.77;;;;;;;;;;4956561;28;21188;-78
2022/11/11 03:55:32;;;;;;;9.53;5.60;;;;;;;;;;4970951;28;20445;-79
2022/11/11 03:57:58;;;;;;;5.33;4.37;;;;;;;;;;4943354;28;20499;-77
2022/11/11 04:00:26;;;;;;;5.07;4.63;;;;;;;;;;4969746;28;21010;-77
2022/11/11 04:11:09;;;;;;;6.00;5.00;;;;;;;;;;4972775;28;20498;-76
2022/11/11 04:16:20;;;;;;;5.40;5.00;;;;;;;;;;4972343;28;20448;-78
2022/11/11 04:21:43;;;;;;;5.13;4.63;;;;;;;;;;4967520;28;21053;-77
2022/11/11 04:27:15;;;;;;;6.97;6.43;;;;;;;;;;4964929;28;21238;-77
2022/11/11 04:29:42;;;;;;;6.03;5.03;;;;;;;;;;4973280;28;21011;-77
2022/11/11 04:35:02;;;;;;;5.17;4.77;;;;;;;;;;4974600;28;20473;-76
2022/11/11 04:37:31;;;;;;;7.90;5.17;;;;;;;;;;4975053;28;20480;-76
2022/11/11 04:42:42;;;;;;;4.97;4.67;;;;;;;;;;4977241;28;20427;-77
2022/11/11 04:45:30;;;;;;;8.63;5.20;;;;;;;;;;4984096;28;20432;-77
2022/11/11 04:48:00;;;;;;;6.60;4.60;;;;;;;;;;4981465;28;20446;-76
2022/11/11 04:50:27;;;;;;;5.20;4.70;;;;;;;;;;4986474;28;20503;-77
2022/11/11 04:52:53;;;;;;;3.93;3.80;;;;;;;;;;4973363;28;20447;-77
2022/11/11 04:58:05;;;;;;;4.87;4.50;;;;;;;;;;4984206;28;20754;-77
2022/11/11 05:00:31;;;;;;;4.93;4.53;;;;;;;;;;4985337;28;20424;-77
2022/11/11 05:03:15;;;;;;;4.10;3.80;;;;;;;;;;4977921;28;20503;-76
2022/11/11 05:08:54;;;;;;;4.23;3.90;;;;;;;;;;4971803;28;20444;-77
2022/11/11 05:11:21;;;;;;;6.07;4.77;;;;;;;;;;4979157;28;20466;-78
2022/11/11 05:22:29;;;;;;;5.93;5.27;;;;;;;;;;4979269;28;20467;-77
2022/11/11 05:27:40;;;;;;;4.13;3.93;;;;;;;;;;4974941;28;20512;-78
2022/11/11 05:30:07;;;;;;;5.07;4.67;;;;;;;;;;4978063;28;20507;-76
2022/11/11 05:32:34;;;;;;;4.70;4.40;;;;;;;;;;4978421;28;20431;-76
2022/11/11 05:35:00;;;;;;;4.90;4.50;;;;;;;;;;4970379;28;20428;-76
2022/11/11 05:37:26;;;;;;;4.00;3.80;;;;;;;;;;4969431;28;21009;-76
2022/11/11 05:39:52;;;;;;;4.57;4.27;;;;;;;;;;4983288;28;20444;-77
2022/11/11 05:42:18;;;;;;;7.87;4.40;;;;;;;;;;4978858;28;20440;-78
2022/11/11 05:44:45;;;;;;;3.60;3.50;;;;;;;;;;4975428;28;20511;-78
2022/11/11 05:47:11;;;;;;;3.83;3.63;;;;;;;;;;4975216;28;20506;-76
2022/11/11 05:49:37;;;;;;;6.53;4.30;;;;;;;;;;4981012;28;20507;-77
2022/11/11 05:52:03;;;;;;;4.20;3.90;;;;;;;;;;4968198;28;20777;-77
2022/11/11 05:54:29;;;;;;;4.50;4.00;;;;;;;;;;4971173;28;20504;-78
2022/11/11 05:56:56;;;;;;;4.30;4.10;;;;;;;;;;4980461;28;20534;-77
2022/11/11 05:59:22;;;;;;;4.30;4.00;;;;;;;;;;4972071;28;20442;-78
2022/11/11 06:01:48;;;;;;;5.03;3.70;;;;;;;;;;4976515;28;20437;-78
2022/11/11 06:04:14;;;;;;;5.20;3.00;;;;;;;;;;4979020;28;20503;-76
2022/11/11 06:06:40;;;;;;;3.40;3.20;;;;;;;;;;4968101;28;20473;-76
2022/11/11 06:09:06;;;;;;;4.03;3.93;;;;;;;;;;4968461;28;21001;-76
2022/11/11 06:11:32;;;;;;;3.50;3.30;;;;;;;;;;4976581;28;21017;-77
2022/11/11 06:13:58;;;;;;;7.37;3.67;;;;;;;;;;4974696;28;20787;-77
2022/11/11 06:16:25;;;;;;;4.03;3.70;;;;;;;;;;4976061;28;20930;-77
2022/11/11 06:18:51;;;;;;;4.10;3.80;;;;;;;;;;4981126;28;20448;-78
2022/11/11 06:21:17;;;;;;;3.00;2.90;;;;;;;;;;4976576;28;20468;-77
2022/11/11 06:23:44;;;;;;;4.33;4.00;;;;;;;;;;4972754;28;20464;-76
2022/11/11 06:26:12;;;;;;;4.53;4.17;;;;;;;;;;4976597;28;20431;-77
2022/11/11 06:28:48;;;;;;;4.67;4.37;;;;;;;;;;4969771;28;20531;-78
2022/11/11 06:31:25;;;;;;;4.37;4.07;;;;;;;;;;4966206;28;20795;-78
2022/11/11 06:33:51;;;;;;;8.23;4.90;;;;;;;;;;4967775;28;20812;-76
2022/11/11 06:36:19;;;;;;;5.73;4.63;;;;;;;;;;4980421;28;20986;-76
2022/11/11 06:38:45;;;;;;;4.40;4.10;;;;;;;;;;4968505;28;20444;-78
2022/11/11 06:41:12;;;;;;;4.40;4.20;;;;;;;;;;4957228;28;20536;-77
2022/11/11 06:43:41;;;;;;;4.97;4.53;;;;;;;;;;4958443;28;20464;-78
2022/11/11 06:46:13;;;;;;;5.07;4.53;;;;;;;;;;4971618;28;20563;-78
2022/11/11 06:48:41;;;;;;;4.97;4.67;;;;;;;;;;4968605;28;20464;-77
2022/11/11 06:51:07;;;;;;;5.47;5.07;;;;;;;;;;4973428;28;20785;-77
2022/11/11 06:53:35;;;;;;;5.50;5.03;;;;;;;;;;4947965;28;20965;-75
2022/11/11 06:56:01;;;;;;;5.70;5.20;;;;;;;;;;4972661;28;20543;-77
2022/11/11 06:58:27;;;;;;;8.87;5.10;;;;;;;;;;4976388;28;20888;-77
2022/11/11 07:00:56;;;;;;;4.80;4.50;;;;;;;;;;4973656;28;20432;-77
2022/11/11 07:03:22;;;;;;;5.80;4.37;;;;;;;;;;4977458;28;20467;-76
2022/11/11 07:05:48;;;;;;;5.00;4.70;;;;;;;;;;4974669;28;20797;-77
2022/11/11 07:08:16;;;;;;;4.83;4.43;;;;;;;;;;4969187;28;20452;-76
2022/11/11 07:10:46;;;;;;;5.23;4.80;;;;;;;;;;4975527;28;20448;-76
2022/11/11 07:13:12;;;;;;;4.70;4.17;;;;;;;;;;4964371;28;20452;-76
2022/11/11 07:15:38;;;;;;;6.53;5.90;;;;;;;;;;4980394;28;20424;-77
2022/11/11 07:18:05;;;;;;;5.70;3.97;;;;;;;;;;4974629;28;20551;-77
2022/11/11 07:20:31;;;;;;;3.70;3.60;;;;;;;;;;4978142;28;20432;-77
2022/11/11 07:22:57;;;;;;;4.50;4.37;;;;;;;;;;4964265;28;20450;-76
2022/11/11 07:25:23;;;;;;;4.53;4.13;;;;;;;;;;4978337;28;20522;-78
2022/11/11 07:27:49;;;;;;;3.97;3.53;;;;;;;;;;4619936;28;10001124;-78
2022/11/11 07:30:15;;;;;;;4.60;4.30;;;;;;;;;;4968343;28;20463;-77
2022/11/11 07:32:49;;;;;;;4.00;3.80;;;;;;;;;;4972526;28;20443;-75
2022/11/11 07:35:15;;;;;;;3.40;3.20;;;;;;;;;;4966228;28;20425;-77
2022/11/11 07:37:42;;;;;;;5.13;4.30;;;;;;;;;;4977064;28;20459;-77
2022/11/11 07:40:08;;;;;;;4.60;4.23;;;;;;;;;;4964758;28;20423;-77
2022/11/11 07:42:37;;;;;;;3.40;3.20;;;;;;;;;;4964081;28;20441;-77
2022/11/11 07:45:04;;;;;;;3.47;3.13;;;;;;;;;;4952568;28;20476;-76
2022/11/11 07:47:30;;;;;;;3.30;3.00;;;;;;;;;;4964504;28;20433;-77
2022/11/11 07:49:56;;;;;;;3.30;3.07;;;;;;;;;;4960595;28;20549;-76
2022/11/11 07:52:22;;;;;;;6.07;3.63;;;;;;;;;;4951256;28;20819;-78
2022/11/11 07:54:49;;;;;;;3.27;3.17;;;;;;;;;;4962438;28;20487;-78
2022/11/11 07:57:15;;;;;;;2.57;2.50;;;;;;;;;;4959872;28;20476;-78
2022/11/11 07:59:41;;;;;;;3.67;3.40;;;;;;;;;;4962845;28;20493;-79
2022/11/11 08:02:10;;;;;;;4.23;2.77;;;;;;;;;;4960899;28;20445;-78
2022/11/11 08:04:36;;;;;;;3.97;3.50;;;;;;;;;;4962387;28;20483;-78
2022/11/11 08:07:02;;;;;;;2.20;2.17;;;;;;;;;;4962469;28;21185;-80
2022/11/11 08:09:28;;;;;;;9.43;3.50;;;;;;;;;;4961035;28;20433;-78
2022/11/11 08:14:39;;;;;;;3.53;3.03;;;;;;;;;;4961151;28;20436;-78
2022/11/11 08:17:05;;;;;;;2.43;2.40;;;;;;;;;;4956215;28;20465;-77
2022/11/11 08:19:31;;;;;;;3.20;3.00;;;;;;;;;;4959693;28;20982;-76
2022/11/11 08:21:57;;;;;;;2.67;2.57;;;;;;;;;;4958501;28;21010;-78
2022/11/11 08:24:23;;;;;;;3.33;3.00;;;;;;;;;;4962409;28;20472;-76
2022/11/11 08:26:49;;;;;;;2.83;2.60;;;;;;;;;;4955686;28;20452;-78
2022/11/11 08:29:15;;;;;;;3.70;2.90;;;;;;;;;;4960671;28;20963;-78
2022/11/11 08:31:41;;;;;;;2.93;2.80;;;;;;;;;;4951528;28;20507;-77
2022/11/11 08:34:07;;;;;;;2.83;2.70;;;;;;;;;;4963317;28;20499;-77
2022/11/11 08:36:34;;;;;;;4.57;3.27;;;;;;;;;;4958396;28;20452;-78
2022/11/11 08:39:00;;;;;;;2.83;2.70;;;;;;;;;;4960586;28;20433;-77
2022/11/11 08:41:26;;;;;;;2.83;2.70;;;;;;;;;;4957268;28;20461;-79
2022/11/11 08:43:53;;;;;;;6.73;3.10;;;;;;;;;;4967082;28;20465;-76
2022/11/11 08:46:19;;;;;;;2.30;2.20;;;;;;;;;;4960934;28;20594;-77
2022/11/11 08:48:46;;;;;;;3.40;3.30;;;;;;;;;;4963409;28;20939;-79
2022/11/11 08:51:12;;;;;;;2.30;2.30;;;;;;;;;;4970217;28;20437;-78
2022/11/11 08:53:38;;;;;;;2.97;2.87;;;;;;;;;;4980403;28;20436;-77
2022/11/11 08:56:05;;;;;;;3.40;3.10;;;;;;;;;;4965021;28;20682;-77
2022/11/11 08:58:31;;;;;;;6.13;1.73;;;;;;;;;;4970232;28;20511;-77
2022/11/11 09:00:57;;;;;;;2.97;2.90;;;;;;;;;;4971263;28;20955;-77
2022/11/11 09:03:23;;;;;;;2.63;2.53;;;;;;;;;;4967554;28;20512;-76
2022/11/11 09:05:49;;;;;;;3.33;3.10;;;;;;;;;;4965243;28;20449;-77
2022/11/11 09:08:16;;;;;;;2.87;2.67;;;;;;;;;;4987258;28;20436;-78
2022/11/11 09:10:42;;;;;;;2.27;2.27;;;;;;;;;;4983660;28;20445;-76
2022/11/11 09:13:08;;;;;;;2.23;2.23;;;;;;;;;;4979695;28;20795;-77
2022/11/11 09:15:35;;;;;;;2.87;2.77;;;;;;;;;;4983568;28;20428;-77
2022/11/11 09:18:02;;;;;;;2.77;2.57;;;;;;;;;;4969520;28;20470;-76
2022/11/11 09:20:28;;;;;;;2.60;2.40;;;;;;;;;;4983667;28;20529;-76
2022/11/11 09:22:54;;;;;;;2.47;2.37;;;;;;;;;;4976736;28;20950;-76
2022/11/11 09:25:22;;;;;;;3.13;3.03;;;;;;;;;;4971227;28;20433;-76
2022/11/11 09:27:58;;;;;;;2.00;1.87;;;;;;;;;;4970285;28;20437;-76
2022/11/11 09:30:24;;;;;;;2.50;2.40;;;;;;;;;;4976391;28;20465;-76
2022/11/11 09:32:50;;;;;;;2.80;2.60;;;;;;;;;;4963507;28;20955;-77
2022/11/11 09:35:17;;;;;;;3.53;3.53;;;;;;;;;;4975084;28;20433;-76
2022/11/11 09:37:51;;;;;;;2.70;2.60;;;;;;;;;;4970883;28;21243;-76
2022/11/11 09:40:20;;;;;;;2.70;2.70;;;;;;;;;;4961950;28;20445;-76
2022/11/11 09:43:06;;;;;;;2.07;2.07;;;;;;;;;;4965214;28;21057;-78
2022/11/11 09:45:37;;;;;;;2.60;2.50;;;;;;;;;;4924720;28;20520;-78
2022/11/11 09:48:21;;;;;;;2.87;2.77;;;;;;;;;;4965395;28;20452;-76
2022/11/11 09:50:53;;;;;;;2.57;2.40;;;;;;;;;;4963960;28;20778;-77
2022/11/11 09:53:28;;;;;;;2.20;2.10;;;;;;;;;;4951010;28;20441;-78
2022/11/11 09:55:54;;;;;;;3.67;3.03;;;;;;;;;;4966630;28;20728;-78
2022/11/11 09:58:26;;;;;;;2.97;2.53;;;;;;;;;;4964498;28;21030;-78
2022/11/11 10:01:00;;;;;;;2.87;2.67;;;;;;;;;;4957762;28;20484;-76
2022/11/11 10:03:29;;;;;;;2.57;2.47;;;;;;;;;;4967216;28;20496;-78
2022/11/11 10:05:58;;;;;;;3.10;2.47;;;;;;;;;;4948270;28;20811;-77
2022/11/11 10:08:36;;;;;;;2.90;2.73;;;;;;;;;;4965483;28;20485;-77
2022/11/11 10:11:05;;;;;;;2.57;2.43;;;;;;;;;;4963958;28;20449;-77
2022/11/11 10:13:32;;;;;;;2.97;2.87;;;;;;;;;;4968435;28;20858;-77
2022/11/11 10:16:01;;;;;;;2.60;2.50;;;;;;;;;;4963381;28;20579;-77
2022/11/11 10:18:27;;;;;;;5.20;3.10;;;;;;;;;;4967517;28;20426;-78
2022/11/11 10:20:54;;;;;;;4.70;2.53;;;;;;;;;;4960557;28;20437;-78
2022/11/11 10:23:38;;;;;;;2.80;2.70;;;;;;;;;;4965598;28;20472;-78
2022/11/11 10:26:28;;;;;;;2.60;2.47;;;;;;;;;;4961495;28;20468;-77
2022/11/11 10:28:54;;;;;;;4.47;3.78;;;;;;;;;;4618271;28;10000223;-77
2022/11/11 10:31:21;;;;;;;2.90;2.77;;;;;;;;;;4970031;28;20184;-77
2022/11/11 10:33:50;;;;;;;2.43;2.33;;;;;;;;;;4959614;28;20464;-76
2022/11/11 10:36:19;;;;;;;2.57;2.47;;;;;;;;;;4967312;28;20493;-77
2022/11/11 10:38:55;;;;;;;3.30;3.00;;;;;;;;;;4957468;28;20437;-77
2022/11/11 10:41:26;;;;;;;2.67;2.57;;;;;;;;;;4957800;28;20551;-77
2022/11/11 10:43:52;;;;;;;4.17;3.00;;;;;;;;;;4959357;28;20501;-77
2022/11/11 10:46:21;;;;;;;2.53;2.40;;;;;;;;;;4961895;28;20429;-78
2022/11/11 10:48:57;;;;;;;4.80;2.83;;;;;;;;;;4958339;28;20448;-77
2022/11/11 10:51:31;;;;;;;2.57;2.47;;;;;;;;;;4959574;28;20431;-78
2022/11/11 10:54:02;;;;;;;2.57;2.37;;;;;;;;;;4968978;28;21094;-78
2022/11/11 10:56:31;;;;;;;2.27;2.17;;;;;;;;;;4968707;28;20490;-78
2022/11/11 10:59:23;;;;;;;2.40;2.30;;;;;;;;;;4952367;28;20859;-77
2022/11/11 11:02:01;;;;;;;2.20;2.10;;;;;;;;;;4961231;28;20547;-80
2022/11/11 11:04:40;;;;;;;2.30;2.30;;;;;;;;;;4948897;28;20568;-79
2022/11/11 11:07:08;;;;;;;3.17;2.80;;;;;;;;;;4974036;28;20456;-78
2022/11/11 11:09:48;;;;;;;2.33;2.33;;;;;;;;;;4967153;28;20421;-79
2022/11/11 11:12:16;;;;;;;2.33;2.23;;;;;;;;;;4968921;28;20444;-77
2022/11/11 11:14:47;;;;;;;3.43;3.13;;;;;;;;;;4970503;28;20782;-77
2022/11/11 11:17:15;;;;;;;3.13;3.03;;;;;;;;;;4970966;28;20558;-79
2022/11/11 11:19:41;;;;;;;2.40;2.30;;;;;;;;;;4964044;28;20652;-77
2022/11/11 11:22:07;;;;;;;2.47;2.30;;;;;;;;;;4970123;28;20437;-77
2022/11/11 11:24:36;;;;;;;2.37;2.33;;;;;;;;;;4962729;28;20895;-77
2022/11/11 11:27:03;;;;;;;2.27;2.17;;;;;;;;;;4958897;28;21026;-77
2022/11/11 11:29:41;;;;;;;1.93;1.83;;;;;;;;;;4956906;28;20536;-78
2022/11/11 11:32:17;;;;;;;2.20;2.10;;;;;;;;;;4964016;28;20445;-78
2022/11/11 11:34:43;;;;;;;2.83;2.30;;;;;;;;;;4946945;28;20436;-76
2022/11/11 11:37:09;;;;;;;2.27;2.27;;;;;;;;;;4951428;28;20453;-77
2022/11/11 11:39:36;;;;;;;2.53;2.37;;;;;;;;;;4960861;28;20499;-78
2022/11/11 11:42:02;;;;;;;4.17;2.80;;;;;;;;;;4949571;28;20440;-79
2022/11/11 11:44:29;;;;;;;3.20;2.33;;;;;;;;;;4962583;28;20588;-80
2022/11/11 11:47:03;;;;;;;2.33;2.23;;;;;;;;;;4967274;28;20457;-79
2022/11/11 11:49:32;;;;;;;2.27;2.10;;;;;;;;;;4969689;28;20439;-79
2022/11/11 11:52:06;;;;;;;2.70;2.30;;;22.20;65.60;;;;;;4621880;28;9999983;-79
2022/11/11 11:54:42;;;;;;;2.73;2.37;;;;;;;;;;4961355;28;20651;-79
2022/11/11 11:57:28;;;;;;;3.07;2.87;;;;;;;;;;4960393;28;20455;-79
2022/11/11 12:00:24;;;;;;;2.27;2.17;;;;;;;;;;4945706;28;20955;-78
2022/11/11 12:02:50;;;;;;;2.40;2.30;;;;;;;;;;4943751;28;20453;-80
2022/11/11 12:05:24;;;;;;;2.27;2.17;;;;;;;;;;4965009;28;20448;-78
2022/11/11 12:08:15;;;;;;;2.10;2.00;;;;;;;;;;4981848;28;20453;-78
2022/11/11 12:10:47;;;;;;;2.50;2.30;;;;;;;;;;4951515;28;20448;-77
2022/11/11 12:13:29;;;;;;;2.20;2.20;;;;;;;;;;4980618;28;20432;-79
2022/11/11 12:16:04;;;;;;;2.50;2.30;;;;;;;;;;4968861;28;20571;-76
2022/11/11 12:18:42;;;;;;;2.63;1.90;;;;;;;;;;4969403;28;20436;-78
2022/11/11 12:21:11;;;;;;;2.20;2.20;;;;;;;;;;4979606;28;20491;-78
2022/11/11 12:23:43;;;;;;;6.30;5.90;;;;;;;;;;4961852;28;20476;-78
2022/11/11 12:26:18;;;;;;;2.20;2.00;;;;;;;;;;4967845;28;20449;-79
2022/11/11 12:28:55;;;;;;;2.07;1.97;;;;;;;;;;4973887;28;20706;-76
2022/11/11 12:31:39;;;;;;;2.00;1.90;;;21.10;78.00;;;;;;4971162;28;20472;-78
2022/11/11 12:34:14;;;;;;;1.83;1.83;;;;;;;;;;4974152;28;20476;-78
2022/11/11 12:36:49;;;;;;;2.53;2.43;;;;;;;;;;4978609;28;20440;-76
2022/11/11 12:39:27;;;;;;;2.83;2.60;;;;;;;;;;4977124;28;20804;-78
2022/11/11 12:41:59;;;;;;;2.10;2.00;;;;;;;;;;4978577;28;20453;-78
2022/11/11 12:44:37;;;;;;;1.73;1.63;;;;;;;;;;4978604;28;20467;-78
2022/11/11 12:47:21;;;;;;;2.50;2.33;;;;;;;;;;4978014;28;20499;-79
2022/11/11 12:50:00;;;;;;;2.20;2.20;;;;;;;;;;4981002;28;20451;-78
2022/11/11 12:52:38;;;;;;;3.40;2.30;;;;;;;;;;4963952;28;20424;-79
2022/11/11 12:55:13;;;;;;;2.00;1.90;;;;;;;;;;4956448;28;20442;-78
2022/11/11 12:57:48;;;;;;;2.13;2.03;;;;;;;;;;4973920;28;20440;-80
2022/11/11 13:00:20;;;;;;;2.00;1.90;;;;;;;;;;4970132;28;20440;-80
2022/11/11 13:02:52;;;;;;;2.40;2.40;;;;;;;;;;4965331;28;20864;-78
2022/11/11 13:05:18;;;;;;;2.20;2.10;;;;;;;;;;4966295;28;20809;-78
2022/11/11 13:07:44;;;;;;;1.87;1.87;;;;;;;;;;4970422;28;20425;-78
2022/11/11 13:10:24;;;;;;;2.23;2.13;;;;;;;;;;4966942;28;20668;-79
2022/11/11 13:13:11;;;;;;;2.93;2.83;;;;;;;;;;4953151;28;20958;-76
2022/11/11 13:15:37;;;;;;;4.10;2.70;;;;;;;;;;4951433;28;20434;-78
2022/11/11 13:18:10;;;;;;;3.30;3.10;;;;;;;;;;4979365;28;20429;-77
2022/11/11 13:20:39;;;;;;;4.00;2.30;;;;;;;;;;4973626;28;20942;-78
2022/11/11 13:23:09;;;;;;;3.00;2.83;;;;;;;;;;4957491;28;20437;-76
2022/11/11 13:25:37;;;;;;;2.60;2.50;;;;;;;;;;4948616;28;20584;-76
2022/11/11 13:28:05;;;;;;;3.63;3.33;;;;;;;;;;4607212;28;9999794;-78
2022/11/11 13:30:31;;;;;;;3.17;2.47;;;;;;;;;;4950901;28;20201;-78
2022/11/11 13:33:17;;;;;;;3.70;3.50;;;;;;;;;;4969027;28;20437;-78
2022/11/11 13:35:46;;;;;;;2.07;2.00;;;;;;;;;;4969264;28;20567;-78
2022/11/11 13:38:25;;;;;;;2.60;2.50;;;;;;;;;;4956761;28;20440;-76
2022/11/11 13:41:00;;;;;;;2.27;2.17;;;;;;;;;;4972451;28;20899;-80
2022/11/11 13:43:29;;;;;;;2.67;2.03;;;;;;;;;;4972689;28;20696;-79
2022/11/11 13:45:57;;;;;;;3.10;2.90;;;;;;;;;;4949130;28;20449;-78
2022/11/11 13:48:23;;;;;;;4.93;2.00;;;;;;;;;;4971749;28;20448;-76
2022/11/11 13:50:49;;;;;;;2.63;2.53;;;;;;;;;;4963160;28;20498;-76
2022/11/11 13:53:32;;;;;;;3.30;3.07;;;;;;;;;;4964510;28;20583;-76
2022/11/11 13:56:19;;;;;;;2.80;2.67;;;;;;;;;;4961107;28;20586;-81
2022/11/11 13:58:47;;;;;;;2.70;2.57;;;;;;;;;;4945769;28;20499;-78
2022/11/11 14:01:13;;;;;;;2.50;2.40;;;;;;;;;;4963325;28;20781;-76
2022/11/11 14:03:45;;;;;;;2.43;2.33;;;;;;;;;;4957507;28;20943;-78
2022/11/11 14:06:14;;;;;;;2.53;2.43;;;;;;;;;;4967789;28;20508;-78
2022/11/11 14:08:46;;;;;;;2.40;2.30;;;;;;;;;;4959819;28;20436;-76
2022/11/11 14:11:28;;;;;;;2.67;2.47;;;;;;;;;;4966842;28;20864;-78
2022/11/11 14:13:57;;;;;;;2.10;2.10;;;;;;;;;;4953689;28;20970;-77
2022/11/11 14:16:35;;;;;;;3.70;2.30;;;;;;;;;;4939764;28;20438;-77
2022/11/11 14:19:16;;;;;;;2.67;2.57;;;;;;;;;;4959082;28;20439;-77
2022/11/11 14:21:43;;;;;;;3.20;2.40;;;;;;;;;;4947082;28;20875;-77
2022/11/11 14:24:22;;;;;;;4.20;4.00;;;;;;;;;;4975100;28;20490;-79
2022/11/11 14:27:02;;;;;;;2.57;2.47;;;;;;;;;;4942034;28;20871;-78
2022/11/11 14:29:33;;;;;;;2.70;2.50;;;;;;;;;;4968663;28;21013;-78
2022/11/11 14:31:59;;;;;;;3.57;2.40;;;;;;;;;;4981508;28;20518;-78
2022/11/11 14:34:31;;;;;;;3.30;3.07;;;;;;;;;;4978395;28;20432;-77
2022/11/11 14:37:16;;;;;;;3.07;2.87;;;;;;;;;;4978023;28;20443;-77
2022/11/11 14:39:52;;;;;;;3.40;3.20;;;;;;;;;;4976164;28;20763;-77
2022/11/11 14:42:34;;;;;;;2.33;2.23;;;;;;;;;;4968967;28;20825;-78
2022/11/11 14:45:00;;;;;;;2.93;2.73;;;;;;;;;;4964939;28;20487;-77
2022/11/11 14:47:32;;;;;;;3.50;3.30;;;;;;;;;;4979090;28;20528;-78
2022/11/11 14:49:59;;;;;;;4.53;4.33;;;;;;;;;;4967240;28;20443;-77
2022/11/11 14:52:28;;;;;;;3.57;3.40;;;;;;;;;;4979820;28;20914;-78
2022/11/11 14:55:15;;;;;;;3.00;2.80;;;;;;;;;;4978019;28;20447;-75
2022/11/11 14:57:55;;;;;;;3.43;2.50;;;;;;;;;;4979434;28;20942;-78
2022/11/11 15:00:23;;;;;;;3.00;2.77;;;;;;;;;;4978396;28;20468;-78
2022/11/11 15:03:08;;;;;;;7.00;3.13;;;;;;;;;;4960390;28;20814;-79
2022/11/11 15:05:34;;;;;;;3.43;3.07;;;;;;;;;;4976810;28;20486;-80
2022/11/11 15:08:11;;;;;;;2.53;2.43;;;;;;;;;;4974986;28;20428;-78
2022/11/11 15:10:53;;;;;;;3.60;3.40;;;;;;;;;;4976272;28;20455;-79
2022/11/11 15:13:30;;;;;;;8.93;3.37;;;;;;;;;;4977213;28;20831;-78
2022/11/11 15:16:00;;;;;;;4.00;3.67;;;;;;;;;;4977429;28;20440;-77
2022/11/11 15:18:32;;;;;;;3.80;3.50;;;;;;;;;;4979821;28;20432;-79
2022/11/11 15:21:07;;;;;;;2.87;2.77;;;;;;;;;;4974165;28;20457;-79
2022/11/11 15:23:39;;;;;;;4.17;3.53;;;;;;;;;;4978005;28;20496;-80
2022/11/11 15:26:31;;;;;;;5.03;4.63;;;;;;;;;;4960025;28;20981;-80
2022/11/11 15:29:09;;;;;;;4.10;3.90;;;;;;;;;;4968888;28;20441;-79
2022/11/11 15:31:54;;;;;;;5.37;3.70;;;;;;;;;;4979268;28;20425;-81
2022/11/11 15:34:34;;;;;;;3.40;3.30;;;;;;;;;;4965747;28;20978;-79
2022/11/11 15:37:23;;;;;;;3.53;3.20;;;;;;;;;;4940172;28;21007;-81
2022/11/11 15:39:56;;;;;;;10.30;3.40;;;;;;;;;;4947450;28;20779;-78
2022/11/11 15:42:46;;;;;;;3.07;2.97;;;;;;;;;;4969013;28;20933;-77
2022/11/11 15:45:23;;;;;;;3.23;2.97;;;;;;;;;;4964596;28;20460;-81
2022/11/11 15:47:49;;;;;;;3.80;3.50;;;;;;;;;;4968166;28;20526;-78
2022/11/11 15:50:30;;;;;;;3.40;3.10;;;;;;;;;;4983502;28;20468;-79
2022/11/11 15:52:57;;;;;;;4.13;3.40;;;;;;;;;;4963714;28;20540;-79
2022/11/11 15:55:25;;;;;;;3.40;3.20;;;;;;;;;;4966775;28;20460;-79
2022/11/11 15:57:51;;;;;;;3.80;3.50;;;;;;;;;;4946778;28;20445;-79
2022/11/11 16:00:23;;;;;;;3.40;3.20;;;;;;;;;;4967426;28;20948;-79
2022/11/11 16:02:50;;;;;;;3.50;3.40;;;;;;;;;;4965008;28;20480;-81
2022/11/11 16:05:22;;;;;;;5.20;4.70;;;;;;;;;;4968066;28;20473;-83
2022/11/11 16:07:48;;;;;;;5.50;5.10;;;;;;;;;;4962582;28;20417;-80